createdAt,value
2018-12-22T00:01:31.459Z,49.00
2018-12-22T00:06:34.810Z,47.80
2018-12-22T00:11:38.253Z,49.00
2018-12-22T00:16:41.646Z,47.00
2018-12-22T00:21:44.966Z,46.25
2018-12-22T00:26:48.394Z,45.00
2018-12-22T00:31:51.792Z,47.20
2018-12-22T00:36:55.185Z,44.00
2018-12-22T00:41:58.540Z,48.80
2018-12-22T00:47:02.022Z,45.80
2018-12-22T00:52:05.442Z,46.25
2018-12-22T00:57:08.779Z,45.00
2018-12-22T01:02:12.261Z,43.75
2018-12-22T01:07:15.553Z,45.00
2018-12-22T01:12:18.929Z,43.25
2018-12-22T01:17:22.248Z,43.75
2018-12-22T01:22:25.787Z,43.75
2018-12-22T01:27:29.208Z,41.00
2018-12-22T01:32:32.557Z,42.40
2018-12-22T01:37:35.942Z,42.00
2018-12-22T01:42:39.338Z,42.75
2018-12-22T01:47:42.703Z,40.60
2018-12-22T01:52:46.170Z,42.40
2018-12-22T01:57:49.502Z,42.00
2018-12-22T02:02:52.849Z,39.20
2018-12-22T02:07:56.195Z,41.00
2018-12-22T02:12:59.502Z,39.25
2018-12-22T02:18:02.818Z,38.20
2018-12-22T02:23:06.184Z,38.50
2018-12-22T02:28:09.649Z,38.60
2018-12-22T02:33:12.948Z,34.00
2018-12-22T02:38:16.268Z,38.50
2018-12-22T02:43:19.607Z,36.80
2018-12-22T02:48:22.907Z,37.75
2018-12-22T02:53:26.202Z,36.00
2018-12-22T02:58:29.522Z,35.00
2018-12-22T03:03:32.830Z,33.80
2018-12-22T03:08:36.195Z,33.75
2018-12-22T03:13:39.513Z,33.75
2018-12-22T03:18:42.829Z,33.60
2018-12-22T03:23:46.230Z,34.00
2018-12-22T03:28:49.550Z,34.00
2018-12-22T03:33:52.945Z,33.80
2018-12-22T03:38:56.253Z,32.50
2018-12-22T03:43:59.581Z,31.25
2018-12-22T03:49:02.926Z,32.75
2018-12-22T03:54:06.253Z,32.60
2018-12-22T03:59:09.621Z,31.00
2018-12-22T04:04:13.049Z,30.25
2018-12-22T04:09:16.494Z,31.00
2018-12-22T04:14:19.832Z,30.50
2018-12-22T04:19:23.180Z,31.80
2018-12-22T04:24:26.714Z,31.00
2018-12-22T04:29:33.939Z,33.80
2018-12-22T04:34:35.431Z,32.50
2018-12-22T04:39:39.057Z,29.60
2018-12-22T04:44:42.447Z,31.00
2018-12-22T04:49:45.790Z,30.50
2018-12-22T04:54:49.142Z,31.40
2018-12-22T04:59:52.507Z,31.00
2018-12-22T05:04:55.929Z,30.80
2018-12-22T05:09:59.312Z,31.00
2018-12-22T05:15:02.706Z,28.40
2018-12-22T05:20:06.843Z,29.60
2018-12-22T05:25:10.188Z,31.20
2018-12-22T05:30:13.674Z,31.20
2018-12-22T05:35:16.982Z,27.00
2018-12-22T05:40:20.353Z,28.60
2018-12-22T05:45:23.773Z,28.00
2018-12-22T05:50:27.454Z,30.00
2018-12-22T05:55:30.826Z,28.00
2018-12-22T06:00:34.133Z,28.50
2018-12-22T06:05:37.559Z,29.00
2018-12-22T06:10:40.983Z,28.75
2018-12-22T06:15:44.382Z,27.75
2018-12-22T06:20:47.877Z,28.60
2018-12-22T06:25:51.373Z,26.00
2018-12-22T06:30:54.719Z,28.00
2018-12-22T06:35:58.119Z,25.75
2018-12-22T06:41:01.466Z,27.60
2018-12-22T06:46:05.029Z,28.50
2018-12-22T06:51:08.511Z,27.50
2018-12-22T06:56:11.856Z,25.00
2018-12-22T07:01:15.199Z,26.20
2018-12-22T07:06:18.493Z,26.80
2018-12-22T07:11:21.818Z,25.60
2018-12-22T07:16:25.126Z,25.75
2018-12-22T07:21:28.535Z,25.25
2018-12-22T07:26:31.856Z,24.00
2018-12-22T07:31:35.160Z,26.00
2018-12-22T07:36:38.496Z,28.40
2018-12-22T07:41:41.794Z,26.20
2018-12-22T07:46:45.100Z,23.00
2018-12-22T07:51:48.436Z,25.75
2018-12-22T07:56:51.736Z,25.75
2018-12-22T08:01:55.026Z,23.75
2018-12-22T08:06:58.649Z,3.00
2018-12-22T08:12:01.946Z,2.00
2018-12-22T08:17:05.467Z,5.80
2018-12-22T08:22:08.868Z,6.80
2018-12-22T08:27:12.219Z,5.00
2018-12-22T08:32:15.504Z,4.25
2018-12-22T08:37:18.929Z,4.00
2018-12-22T08:42:22.330Z,6.75
2018-12-22T08:47:25.754Z,8.20
2018-12-22T08:52:29.132Z,8.25
2018-12-22T08:57:32.542Z,11.20
2018-12-22T09:02:35.985Z,41.25
2018-12-22T09:07:39.384Z,106.75
2018-12-22T09:12:42.740Z,198.50
2018-12-22T09:17:46.061Z,220.00
2018-12-22T09:22:49.393Z,224.00
2018-12-22T09:27:52.757Z,219.00
2018-12-22T09:32:56.166Z,210.25
2018-12-22T09:37:59.478Z,203.50
2018-12-22T09:43:02.790Z,204.40
2018-12-22T09:48:06.117Z,205.50
2018-12-22T09:53:10.021Z,199.50
2018-12-22T09:58:13.641Z,193.00
2018-12-22T10:03:17.222Z,198.00
2018-12-22T10:08:20.725Z,193.50
2018-12-22T10:13:24.134Z,189.25
2018-12-22T10:18:28.110Z,185.50
2018-12-22T10:23:31.822Z,178.75
2018-12-22T10:28:35.238Z,182.40
2018-12-22T10:33:38.557Z,177.00
2018-12-22T10:38:41.902Z,182.00
2018-12-22T10:43:45.229Z,183.20
2018-12-22T10:48:48.605Z,176.00
2018-12-22T10:53:51.976Z,176.00
2018-12-22T10:58:55.390Z,171.00
2018-12-22T11:03:59.741Z,164.60
2018-12-22T11:09:03.102Z,171.00
2018-12-22T11:14:06.589Z,159.25
2018-12-22T11:19:09.995Z,165.75
2018-12-22T11:24:13.527Z,162.75
2018-12-22T11:29:16.895Z,157.40
2018-12-22T11:34:20.368Z,154.75
2018-12-22T11:39:23.854Z,154.40
2018-12-22T11:44:27.161Z,155.75
2018-12-22T11:49:34.512Z,152.25
2018-12-22T11:54:37.896Z,147.50
2018-12-22T11:59:41.200Z,143.50
2018-12-22T12:04:44.514Z,145.00
2018-12-22T12:09:47.932Z,148.00
2018-12-22T12:14:51.422Z,146.00
2018-12-22T12:19:54.801Z,142.40
2018-12-22T12:24:58.706Z,141.60
2018-12-22T12:30:02.284Z,138.60
2018-12-22T12:35:07.396Z,133.00
2018-12-22T12:40:12.529Z,133.25
2018-12-22T12:45:16.010Z,131.25
2018-12-22T12:50:21.454Z,126.80
2018-12-22T12:55:24.965Z,126.80
2018-12-22T13:00:28.380Z,127.00
2018-12-22T13:05:31.890Z,127.00
2018-12-22T13:10:35.346Z,113.50
2018-12-22T13:15:38.661Z,122.75
2018-12-22T13:20:42.065Z,123.50
2018-12-22T13:25:45.411Z,119.00
2018-12-22T13:30:48.786Z,117.20
2018-12-22T13:35:52.346Z,117.75
2018-12-22T13:40:55.825Z,118.80
2018-12-22T13:45:59.204Z,112.00
2018-12-22T13:51:02.597Z,114.00
2018-12-22T13:56:06.024Z,109.80
2018-12-22T14:01:12.965Z,112.25
2018-12-22T14:06:21.958Z,108.00
2018-12-22T14:11:25.368Z,112.25
2018-12-22T14:16:36.194Z,107.40
2018-12-22T14:21:40.304Z,105.40
2018-12-22T14:26:43.740Z,109.40
2018-12-22T14:31:47.103Z,109.40
2018-12-22T14:36:50.531Z,100.25
2018-12-22T14:41:53.915Z,110.00
2018-12-22T14:46:57.290Z,100.00
2018-12-22T14:52:00.600Z,100.50
2018-12-22T14:57:04.158Z,98.75
2018-12-22T15:02:07.522Z,99.00
2018-12-22T15:07:10.960Z,100.60
2018-12-22T15:12:14.344Z,100.50
2018-12-22T15:17:17.669Z,99.20
2018-12-22T15:22:21.215Z,102.00
2018-12-22T15:27:25.110Z,98.25
2018-12-22T15:32:28.410Z,95.75
2018-12-22T15:37:31.730Z,95.20
2018-12-22T15:42:35.148Z,99.00
2018-12-22T15:47:38.640Z,93.25
2018-12-22T15:52:42.112Z,96.00
2018-12-22T15:57:45.529Z,93.50
2018-12-22T16:02:53.164Z,93.00
2018-12-22T16:07:54.291Z,87.25
2018-12-22T16:12:57.597Z,88.40
2018-12-22T16:18:01.043Z,83.60
2018-12-22T16:23:04.979Z,82.25
2018-12-22T16:28:27.390Z,86.00
2018-12-22T16:33:30.747Z,82.00
2018-12-22T16:38:34.078Z,40.00
2018-12-22T16:43:38.152Z,55.50
2018-12-22T16:48:44.434Z,63.50
2018-12-22T16:53:47.743Z,54.50
2018-12-22T16:58:55.261Z,55.20
2018-12-22T17:03:58.570Z,50.75
2018-12-22T17:09:01.973Z,48.20
2018-12-22T17:14:05.377Z,48.00
2018-12-22T17:19:08.769Z,46.40
2018-12-22T17:24:20.373Z,43.25
2018-12-22T17:29:23.685Z,42.20
2018-12-22T17:34:27.002Z,44.40
2018-12-22T17:39:36.618Z,45.00
2018-12-22T17:44:35.776Z,41.20
2018-12-22T17:49:39.152Z,39.20
2018-12-22T17:54:42.458Z,40.75
2018-12-22T17:59:45.911Z,36.80
2018-12-22T18:04:49.219Z,36.00
2018-12-22T18:09:52.561Z,35.50
2018-12-22T18:14:56.053Z,31.80
2018-12-22T18:19:59.336Z,36.25
2018-12-22T18:25:02.935Z,32.00
2018-12-22T18:30:08.981Z,31.40
2018-12-22T18:35:13.026Z,30.75
2018-12-22T18:40:18.679Z,31.80
2018-12-22T18:45:21.973Z,31.00
2018-12-22T18:50:26.885Z,30.25
2018-12-22T18:55:30.241Z,27.75
2018-12-22T19:00:33.643Z,29.60
2018-12-22T19:05:36.949Z,26.00
2018-12-22T19:10:45.999Z,27.25
2018-12-22T19:15:49.503Z,25.75
2018-12-22T19:20:54.971Z,23.40
2018-12-22T19:25:58.261Z,21.25
2018-12-22T19:31:02.280Z,24.00
2018-12-22T19:36:05.750Z,21.50
2018-12-22T19:41:09.081Z,23.00
2018-12-22T19:46:12.434Z,21.80
2018-12-22T19:51:15.933Z,19.20
2018-12-22T19:56:19.284Z,20.25
2018-12-22T20:01:22.747Z,23.20
2018-12-22T20:06:26.102Z,18.50
2018-12-22T20:11:29.578Z,17.50
2018-12-22T20:16:32.919Z,20.75
2018-12-22T20:21:36.268Z,18.00
2018-12-22T20:26:40.051Z,17.50
2018-12-22T20:31:44.199Z,16.60
2018-12-22T20:36:47.638Z,16.00
2018-12-22T20:41:51.028Z,14.40
2018-12-22T20:46:54.517Z,16.00
2018-12-22T20:51:57.915Z,14.80
2018-12-22T20:57:01.368Z,15.75
2018-12-22T21:02:05.454Z,16.20
2018-12-22T21:07:08.856Z,16.50
2018-12-22T21:12:12.225Z,13.50
2018-12-22T21:17:15.561Z,15.00
2018-12-22T21:22:18.886Z,14.20
2018-12-22T21:27:22.221Z,15.25
2018-12-22T21:32:25.642Z,15.00
2018-12-22T21:37:28.963Z,14.25
2018-12-22T21:42:33.372Z,14.50
2018-12-22T21:47:36.678Z,16.25
2018-12-22T21:52:40.182Z,15.50
2018-12-22T21:57:43.522Z,16.00
2018-12-22T22:02:46.849Z,15.00
2018-12-22T22:07:50.166Z,12.60
2018-12-22T22:12:53.520Z,11.80
2018-12-22T22:17:56.886Z,13.40
2018-12-22T22:23:00.206Z,11.25
2018-12-22T22:28:03.621Z,15.00
2018-12-22T22:33:06.927Z,13.60
2018-12-22T22:38:10.281Z,13.75
2018-12-22T22:43:13.655Z,13.60
2018-12-22T22:48:16.970Z,13.75
2018-12-22T22:53:20.376Z,13.50
2018-12-22T22:58:23.769Z,12.60
2018-12-22T23:03:27.070Z,10.60
2018-12-22T23:08:30.385Z,12.50
2018-12-22T23:13:33.693Z,11.00
2018-12-22T23:18:37.015Z,12.25
2018-12-22T23:23:40.345Z,11.20
2018-12-22T23:28:43.764Z,10.00
2018-12-22T23:33:47.189Z,10.00
2018-12-22T23:38:50.488Z,12.50
2018-12-22T23:43:53.802Z,9.60
2018-12-22T23:48:57.218Z,10.50
2018-12-22T23:54:00.569Z,9.50
2018-12-22T23:59:04.030Z,9.50
